createdAt,value
2023-02-03T00:01:07.650Z,102265.88
2023-02-03T00:03:35.268Z,102262.06
2023-02-03T00:06:01.895Z,102267.38
2023-02-03T00:08:28.393Z,102267.97
2023-02-03T00:10:54.762Z,102263.63
2023-02-03T00:13:21.093Z,102262.44
2023-02-03T00:15:47.542Z,102260.38
2023-02-03T00:18:13.839Z,102263.88
2023-02-03T00:20:41.424Z,102261.03
2023-02-03T00:23:08.617Z,102255.53
2023-02-03T00:25:35.256Z,102250.13
2023-02-03T00:28:01.588Z,102248.53
2023-02-03T00:30:28.306Z,102248.47
2023-02-03T00:32:54.983Z,102261.81
2023-02-03T00:35:21.349Z,102264.66
2023-02-03T00:37:52.112Z,102262.91
2023-02-03T00:40:18.622Z,102269.88
2023-02-03T00:42:44.886Z,102262.06
2023-02-03T00:45:11.174Z,102261.03
2023-02-03T00:47:37.511Z,102270.41
2023-02-03T00:50:04.125Z,102272.53
2023-02-03T00:52:30.375Z,102278.16
2023-02-03T00:54:57.988Z,102271.34
2023-02-03T00:57:24.454Z,102273.50
2023-02-03T00:59:50.712Z,102275.38
2023-02-03T01:02:17.070Z,102268.28
2023-02-03T01:04:43.435Z,102290.06
2023-02-03T01:07:09.720Z,102285.44
2023-02-03T01:09:36.623Z,102287.53
2023-02-03T01:12:04.902Z,102298.78
2023-02-03T01:14:31.585Z,102301.72
2023-02-03T01:16:57.928Z,102301.38
2023-02-03T01:19:24.253Z,102301.25
2023-02-03T01:21:50.577Z,102310.78
2023-02-03T01:24:16.909Z,102309.34
2023-02-03T01:26:43.265Z,102313.53
2023-02-03T01:29:10.979Z,102313.84
2023-02-03T01:31:38.425Z,102322.22
2023-02-03T01:34:05.445Z,102311.41
2023-02-03T01:36:33.196Z,102302.91
2023-02-03T01:39:01.549Z,102300.28
2023-02-03T01:41:28.913Z,102296.25
2023-02-03T01:43:56.048Z,102294.63
2023-02-03T01:46:28.434Z,102294.66
2023-02-03T01:48:57.681Z,102296.25
2023-02-03T01:51:24.342Z,102300.03
2023-02-03T01:53:51.518Z,102304.47
2023-02-03T01:56:17.954Z,102305.88
2023-02-03T01:58:45.886Z,102303.66
2023-02-03T02:01:12.360Z,102298.97
2023-02-03T02:03:40.999Z,102287.34
2023-02-03T02:06:09.173Z,102286.22
2023-02-03T02:08:38.613Z,102291.75
2023-02-03T02:11:05.644Z,102280.22
2023-02-03T02:13:32.951Z,102265.44
2023-02-03T02:16:04.061Z,102256.91
2023-02-03T02:18:48.288Z,102254.09
2023-02-03T02:21:30.651Z,102243.44
2023-02-03T02:24:08.295Z,102244.72
2023-02-03T02:26:43.851Z,102242.91
2023-02-03T02:29:25.596Z,102244.59
2023-02-03T02:32:01.392Z,102245.38
2023-02-03T02:34:36.391Z,102251.91
2023-02-03T02:37:06.065Z,102248.75
2023-02-03T02:39:38.411Z,102247.47
2023-02-03T02:42:07.565Z,102254.00
2023-02-03T02:44:35.865Z,102257.31
2023-02-03T02:47:06.307Z,102252.59
2023-02-03T02:49:35.615Z,102262.63
2023-02-03T02:52:04.023Z,102257.91
2023-02-03T02:54:31.398Z,102264.38
2023-02-03T02:56:59.564Z,102278.88
2023-02-03T02:59:25.873Z,102271.25
2023-02-03T03:01:52.217Z,102259.13
2023-02-03T03:04:21.964Z,102256.84
2023-02-03T03:06:51.160Z,102251.84
2023-02-03T03:09:21.399Z,102259.13
2023-02-03T03:11:50.298Z,102249.59
2023-02-03T03:14:18.826Z,102252.25
2023-02-03T03:16:48.118Z,102259.81
2023-02-03T03:19:16.739Z,102261.50
2023-02-03T03:21:47.226Z,102272.31
2023-02-03T03:24:16.615Z,102269.13
2023-02-03T03:26:46.629Z,102258.63
2023-02-03T03:29:16.909Z,102260.19
2023-02-03T03:31:43.727Z,102266.06
2023-02-03T03:34:10.993Z,102261.81
2023-02-03T03:36:40.811Z,102255.13
2023-02-03T03:39:12.145Z,102264.91
2023-02-03T03:41:41.246Z,102258.59
2023-02-03T03:44:11.102Z,102244.06
2023-02-03T03:46:40.009Z,102253.81
2023-02-03T03:49:07.158Z,102255.75
2023-02-03T03:51:35.290Z,102253.34
2023-02-03T03:54:05.482Z,102247.28
2023-02-03T03:56:36.177Z,102246.94
2023-02-03T03:59:03.863Z,102247.69
2023-02-03T04:01:31.022Z,102233.56
2023-02-03T04:03:59.564Z,102232.63
2023-02-03T04:06:25.862Z,102222.13
2023-02-03T04:08:52.149Z,102228.34
2023-02-03T04:11:18.453Z,102232.34
2023-02-03T04:13:46.052Z,102225.25
2023-02-03T04:16:12.419Z,102232.91
2023-02-03T04:18:38.700Z,102226.41
2023-02-03T04:21:05.168Z,102239.69
2023-02-03T04:23:31.498Z,102245.56
2023-02-03T04:26:00.556Z,102247.63
2023-02-03T04:28:26.834Z,102257.38
2023-02-03T04:30:54.624Z,102252.72
2023-02-03T04:33:20.914Z,102253.50
2023-02-03T04:35:47.211Z,102262.00
2023-02-03T04:38:13.462Z,102260.63
2023-02-03T04:40:39.754Z,102268.47
2023-02-03T04:43:06.613Z,102255.53
2023-02-03T04:45:32.919Z,102274.72
2023-02-03T04:48:00.519Z,102262.53
2023-02-03T04:50:27.048Z,102241.22
2023-02-03T04:52:53.496Z,102250.75
2023-02-03T04:55:19.786Z,102252.94
2023-02-03T04:57:46.081Z,102251.47
2023-02-03T05:00:13.084Z,102248.19
2023-02-03T05:02:39.375Z,102250.28
2023-02-03T05:05:07.464Z,102250.13
2023-02-03T05:07:33.738Z,102249.53
2023-02-03T05:10:00.035Z,102246.41
2023-02-03T05:12:26.325Z,102256.75
2023-02-03T05:14:52.585Z,102234.44
2023-02-03T05:17:18.869Z,102234.44
2023-02-03T05:19:45.123Z,102236.81
2023-02-03T05:22:12.766Z,102232.00
2023-02-03T05:24:39.062Z,102225.97
2023-02-03T05:27:05.343Z,102228.63
2023-02-03T05:29:31.637Z,102237.44
2023-02-03T05:31:57.969Z,102245.81
2023-02-03T05:34:24.491Z,102244.72
2023-02-03T05:36:50.787Z,102247.00
2023-02-03T05:39:18.383Z,102251.19
2023-02-03T05:41:44.654Z,102255.63
2023-02-03T05:44:10.987Z,102263.53
2023-02-03T05:46:37.282Z,102272.66
2023-02-03T05:49:03.598Z,102268.63
2023-02-03T05:51:29.891Z,102265.75
2023-02-03T05:53:56.163Z,102268.63
2023-02-03T05:56:23.809Z,102272.22
2023-02-03T05:58:50.092Z,102272.22
2023-02-03T06:01:16.351Z,102281.34
2023-02-03T06:03:45.747Z,102278.38
2023-02-03T06:06:12.587Z,102277.66
2023-02-03T06:08:38.873Z,102276.59
2023-02-03T06:11:05.134Z,102271.72
2023-02-03T06:13:32.773Z,102278.50
2023-02-03T06:15:59.032Z,102279.00
2023-02-03T06:18:25.382Z,102279.66
2023-02-03T06:20:51.666Z,102284.19
2023-02-03T06:23:18.095Z,102276.69
2023-02-03T06:25:44.445Z,102277.06
2023-02-03T06:28:10.785Z,102278.28
2023-02-03T06:30:38.640Z,102287.94
2023-02-03T06:33:05.071Z,102286.84
2023-02-03T06:35:31.408Z,102276.84
2023-02-03T06:37:57.685Z,102279.22
2023-02-03T06:40:23.988Z,102274.47
2023-02-03T06:42:50.351Z,102274.09
2023-02-03T06:45:17.043Z,102263.72
2023-02-03T06:47:45.198Z,102258.66
2023-02-03T06:50:12.642Z,102255.84
2023-02-03T06:52:39.145Z,102266.25
2023-02-03T06:55:05.839Z,102267.66
2023-02-03T06:57:32.535Z,102260.44
2023-02-03T06:59:58.822Z,102265.13
2023-02-03T07:02:25.151Z,102265.75
2023-02-03T07:04:52.850Z,102268.28
2023-02-03T07:07:19.153Z,102260.94
2023-02-03T07:09:45.433Z,102257.56
2023-02-03T07:12:11.712Z,102267.03
2023-02-03T07:14:37.990Z,102269.38
2023-02-03T07:17:04.376Z,102270.38
2023-02-03T07:19:31.789Z,102277.66
2023-02-03T07:21:59.667Z,102277.91
2023-02-03T07:24:26.083Z,102288.88
2023-02-03T07:26:52.610Z,102300.34
2023-02-03T07:29:19.161Z,102296.31
2023-02-03T07:31:45.663Z,102305.69
2023-02-03T07:34:12.675Z,102294.94
2023-02-03T07:36:44.404Z,102296.72
2023-02-03T07:39:12.065Z,102294.63
2023-02-03T07:41:38.361Z,102293.03
2023-02-03T07:44:05.138Z,102269.69
2023-02-03T07:46:31.541Z,102275.97
2023-02-03T07:48:57.845Z,102291.88
2023-02-03T07:51:24.148Z,102286.88
2023-02-03T07:53:50.456Z,102300.78
2023-02-03T07:56:18.064Z,102293.03
2023-02-03T07:58:44.348Z,102294.00
2023-02-03T08:01:12.774Z,102308.53
2023-02-03T08:03:39.181Z,102303.16
2023-02-03T08:06:05.749Z,102295.00
2023-02-03T08:08:32.024Z,102294.53
2023-02-03T08:10:58.652Z,102306.47
2023-02-03T08:13:26.650Z,102310.31
2023-02-03T08:15:53.029Z,102313.72
2023-02-03T08:18:19.393Z,102316.91
2023-02-03T08:20:46.612Z,102317.88
2023-02-03T08:23:12.947Z,102326.66
2023-02-03T08:25:39.220Z,102329.09
2023-02-03T08:28:05.570Z,102340.13
2023-02-03T08:30:33.307Z,102353.41
2023-02-03T08:32:59.648Z,102358.03
2023-02-03T08:35:25.940Z,102354.09
2023-02-03T08:37:52.213Z,102346.56
2023-02-03T08:40:18.679Z,102350.56
2023-02-03T08:42:45.021Z,102338.59
2023-02-03T08:45:12.549Z,102347.31
2023-02-03T08:47:40.618Z,102357.22
2023-02-03T08:50:08.513Z,102348.84
2023-02-03T08:52:34.964Z,102347.16
2023-02-03T08:55:01.267Z,102358.19
2023-02-03T08:57:27.621Z,102364.50
2023-02-03T08:59:53.945Z,102363.66
2023-02-03T09:02:20.291Z,102370.19
2023-02-03T09:04:48.008Z,102368.97
2023-02-03T09:07:14.303Z,102361.13
2023-02-03T09:09:40.743Z,102362.59
2023-02-03T09:12:07.107Z,102363.03
2023-02-03T09:14:33.669Z,102364.03
2023-02-03T09:17:00.078Z,102367.78
2023-02-03T09:19:26.412Z,102366.75
2023-02-03T09:21:54.133Z,102362.16
2023-02-03T09:24:20.867Z,102356.38
2023-02-03T09:26:47.178Z,102353.84
2023-02-03T09:29:13.483Z,102350.81
2023-02-03T09:31:39.902Z,102355.91
2023-02-03T09:34:06.316Z,102355.59
2023-02-03T09:36:33.210Z,102363.75
2023-02-03T09:39:00.923Z,102377.19
2023-02-03T09:41:36.098Z,102367.94
2023-02-03T09:44:08.588Z,102382.56
2023-02-03T09:46:38.069Z,102375.59
2023-02-03T09:49:08.105Z,102380.56
2023-02-03T09:51:36.482Z,102388.38
2023-02-03T09:54:07.786Z,102387.81
2023-02-03T09:56:36.059Z,102388.50
2023-02-03T09:59:03.261Z,102389.28
2023-02-03T10:01:34.313Z,102389.28
2023-02-03T10:04:04.243Z,102382.56
2023-02-03T10:06:33.048Z,102394.03
2023-02-03T10:09:04.389Z,102398.94
2023-02-03T10:11:39.738Z,102395.88
2023-02-03T10:14:16.008Z,102399.00
2023-02-03T10:16:48.800Z,102400.50
2023-02-03T10:19:17.035Z,102400.44
2023-02-03T10:21:44.748Z,102396.13
2023-02-03T10:24:13.839Z,102382.88
2023-02-03T10:26:41.938Z,102370.44
2023-02-03T10:29:16.455Z,102379.16
2023-02-03T10:31:43.884Z,102389.81
2023-02-03T10:34:11.234Z,102389.25
2023-02-03T10:36:45.617Z,102391.41
2023-02-03T10:39:17.730Z,102382.84
2023-02-03T10:41:47.945Z,102387.34
2023-02-03T10:44:15.020Z,102385.63
2023-02-03T10:46:43.217Z,102372.63
2023-02-03T10:49:11.906Z,102384.78
2023-02-03T10:51:40.369Z,102378.66
2023-02-03T10:54:25.761Z,102390.25
2023-02-03T10:56:55.145Z,102409.34
2023-02-03T10:59:27.834Z,102389.16
2023-02-03T11:01:54.589Z,102393.63
2023-02-03T11:04:24.449Z,102396.78
2023-02-03T11:06:54.172Z,102385.44
2023-02-03T11:09:22.183Z,102388.34
2023-02-03T11:11:48.521Z,102380.13
2023-02-03T11:14:16.825Z,102394.66
2023-02-03T11:16:44.592Z,102392.81
2023-02-03T11:19:15.553Z,102389.06
2023-02-03T11:21:43.441Z,102408.16
2023-02-03T11:24:15.681Z,102396.09
2023-02-03T11:26:43.989Z,102397.03
2023-02-03T11:29:16.559Z,102404.16
2023-02-03T11:31:47.054Z,102412.00
2023-02-03T11:34:16.152Z,102406.59
2023-02-03T11:36:42.466Z,102393.81
2023-02-03T11:39:10.261Z,102395.59
2023-02-03T11:41:37.342Z,102397.88
2023-02-03T11:44:10.168Z,102397.66
2023-02-03T11:46:37.467Z,102394.38
2023-02-03T11:49:11.624Z,102384.00
2023-02-03T11:51:43.592Z,102394.16
2023-02-03T11:54:18.657Z,102393.91
2023-02-03T11:56:54.843Z,102390.28
2023-02-03T11:59:29.745Z,102385.81
2023-02-03T12:02:03.149Z,102397.53
2023-02-03T12:04:38.601Z,102395.34
2023-02-03T12:07:13.691Z,102398.28
2023-02-03T12:09:43.901Z,102396.91
2023-02-03T12:12:18.310Z,102397.31
2023-02-03T12:14:49.790Z,102403.81
2023-02-03T12:17:40.003Z,102400.19
2023-02-03T12:20:18.438Z,102394.38
2023-02-03T12:22:50.709Z,102390.31
2023-02-03T12:25:24.021Z,102390.44
2023-02-03T12:27:56.216Z,102401.78
2023-02-03T12:30:25.379Z,102399.69
2023-02-03T12:32:53.748Z,102385.31
2023-02-03T12:35:25.191Z,102393.91
2023-02-03T12:37:56.617Z,102391.72
2023-02-03T12:40:26.046Z,102403.69
2023-02-03T12:42:55.590Z,102411.56
2023-02-03T12:45:23.756Z,102411.06
2023-02-03T12:47:52.486Z,102419.75
2023-02-03T12:50:20.183Z,102423.16
2023-02-03T12:52:52.363Z,102429.56
2023-02-03T12:55:22.045Z,102427.84
2023-02-03T12:57:51.122Z,102426.66
2023-02-03T13:00:21.540Z,102434.53
2023-02-03T13:02:56.494Z,102426.78
2023-02-03T13:05:24.883Z,102427.25
2023-02-03T13:07:56.984Z,102429.81
2023-02-03T13:10:25.946Z,102430.16
2023-02-03T13:12:55.913Z,102420.97
2023-02-03T13:15:24.951Z,102432.22
2023-02-03T13:17:55.089Z,102422.06
2023-02-03T13:20:22.322Z,102427.72
2023-02-03T13:22:48.648Z,102427.22
2023-02-03T13:25:20.538Z,102435.00
2023-02-03T13:27:50.116Z,102437.88
2023-02-03T13:30:28.941Z,102439.22
2023-02-03T13:33:08.505Z,102434.38
2023-02-03T13:35:46.428Z,102432.84
2023-02-03T13:38:36.964Z,102434.75
2023-02-03T13:41:07.590Z,102431.03
2023-02-03T13:43:38.973Z,102447.09
2023-02-03T13:46:08.844Z,102435.13
2023-02-03T13:48:35.687Z,102436.69
2023-02-03T13:51:03.675Z,102439.59
2023-02-03T13:53:34.243Z,102437.78
2023-02-03T13:56:02.347Z,102423.19
2023-02-03T13:58:31.520Z,102419.31
2023-02-03T14:01:04.115Z,102432.34
2023-02-03T14:03:45.826Z,102444.34
2023-02-03T14:06:27.051Z,102432.84
2023-02-03T14:08:58.301Z,102445.31
2023-02-03T14:11:40.733Z,102437.44
2023-02-03T14:14:25.671Z,102436.72
2023-02-03T14:16:54.996Z,102427.28
2023-02-03T14:19:36.311Z,102438.31
2023-02-03T14:22:04.630Z,102427.78
2023-02-03T14:24:32.115Z,102435.25
2023-02-03T14:26:59.892Z,102434.69
2023-02-03T14:29:27.264Z,102432.59
2023-02-03T14:31:59.602Z,102436.72
2023-02-03T14:34:37.649Z,102422.22
2023-02-03T14:37:12.452Z,102434.19
2023-02-03T14:39:46.075Z,102430.91
2023-02-03T14:42:17.273Z,102428.97
2023-02-03T14:44:49.254Z,102435.75
2023-02-03T14:47:23.939Z,102442.28
2023-02-03T14:50:07.920Z,102438.19
2023-02-03T14:52:42.754Z,102444.47
2023-02-03T14:55:15.936Z,102451.59
2023-02-03T14:57:45.294Z,102451.72
2023-02-03T15:00:26.443Z,102458.13
2023-02-03T15:03:11.692Z,102461.38
2023-02-03T15:05:40.524Z,102473.09
2023-02-03T15:08:21.701Z,102465.25
2023-02-03T15:10:47.989Z,102457.66
2023-02-03T15:13:23.692Z,102463.78
2023-02-03T15:15:52.465Z,102460.88
2023-02-03T15:18:22.883Z,102471.75
2023-02-03T15:20:54.138Z,102474.41
2023-02-03T15:23:21.133Z,102483.63
2023-02-03T15:25:53.304Z,102481.78
2023-02-03T15:28:20.768Z,102487.25
2023-02-03T15:30:49.568Z,102497.38
2023-02-03T15:33:18.167Z,102490.84
2023-02-03T15:35:46.084Z,102497.47
2023-02-03T15:38:15.421Z,102497.06
2023-02-03T15:40:43.513Z,102487.34
2023-02-03T15:43:14.960Z,102490.63
2023-02-03T15:45:44.206Z,102492.06
2023-02-03T15:48:13.715Z,102504.19
2023-02-03T15:50:42.692Z,102506.31
2023-02-03T15:53:10.489Z,102503.59
2023-02-03T15:55:40.715Z,102504.88
2023-02-03T15:58:15.042Z,102514.97
2023-02-03T16:00:41.404Z,102513.44
2023-02-03T16:03:16.016Z,102534.69
2023-02-03T16:05:42.435Z,102530.78
2023-02-03T16:08:28.042Z,102534.91
2023-02-03T16:10:55.748Z,102531.31
2023-02-03T16:13:23.739Z,102533.22
2023-02-03T16:15:58.388Z,102532.06
2023-02-03T16:18:24.774Z,102547.03
2023-02-03T16:20:51.443Z,102548.13
2023-02-03T16:23:19.164Z,102547.53
2023-02-03T16:26:00.373Z,102554.66
2023-02-03T16:28:30.294Z,102564.72
2023-02-03T16:30:59.958Z,102563.94
2023-02-03T16:33:26.351Z,102570.78
2023-02-03T16:35:52.661Z,102581.94
2023-02-03T16:38:18.995Z,102581.81
2023-02-03T16:40:47.501Z,102589.66
2023-02-03T16:43:14.688Z,102584.56
2023-02-03T16:45:42.434Z,102584.53
2023-02-03T16:48:10.093Z,102587.19
2023-02-03T16:50:39.034Z,102587.13
2023-02-03T16:53:06.171Z,102601.03
2023-02-03T16:55:32.594Z,102596.56
2023-02-03T16:57:58.942Z,102598.25
2023-02-03T17:00:25.307Z,102595.69
2023-02-03T17:02:52.971Z,102599.75
2023-02-03T17:05:19.276Z,102599.75
2023-02-03T17:07:45.606Z,102612.19
2023-02-03T17:10:11.958Z,102613.97
2023-02-03T17:12:38.282Z,102604.63
2023-02-03T17:15:04.836Z,102599.44
2023-02-03T17:17:31.157Z,102611.97
2023-02-03T17:19:58.916Z,102608.97
2023-02-03T17:22:25.239Z,102607.19
2023-02-03T17:24:51.531Z,102616.22
2023-02-03T17:27:17.839Z,102614.94
2023-02-03T17:29:44.140Z,102616.72
2023-02-03T17:32:10.616Z,102618.88
2023-02-03T17:34:36.993Z,102615.25
2023-02-03T17:37:04.712Z,102622.03
2023-02-03T17:55:41.498Z,102653.63
2023-02-03T17:58:07.845Z,102663.81
2023-02-03T18:00:34.209Z,102664.75
2023-02-03T18:03:00.723Z,102665.09
2023-02-03T18:05:27.093Z,102667.97
2023-02-03T18:07:53.500Z,102679.25
2023-02-03T18:10:21.305Z,102682.34
2023-02-03T18:12:47.785Z,102680.41
2023-02-03T18:15:14.120Z,102673.97
2023-02-03T18:17:40.432Z,102676.81
2023-02-03T18:20:07.204Z,102675.22
2023-02-03T18:22:33.575Z,102684.56
2023-02-03T18:24:59.889Z,102696.78
2023-02-03T18:27:27.626Z,102695.94
2023-02-03T18:29:53.946Z,102696.16
2023-02-03T18:32:20.274Z,102690.75
2023-02-03T18:34:46.778Z,102706.97
2023-02-03T18:37:13.171Z,102703.78
2023-02-03T18:39:39.510Z,102712.09
2023-02-03T18:42:05.898Z,102718.75
2023-02-03T18:44:33.548Z,102719.50
2023-02-03T18:46:59.842Z,102721.94
2023-02-03T18:49:26.201Z,102720.34
2023-02-03T18:51:52.541Z,102731.81
2023-02-03T18:54:18.866Z,102721.00
2023-02-03T18:56:46.166Z,102725.66
2023-02-03T18:59:12.523Z,102730.97
2023-02-03T19:01:40.373Z,102736.81
2023-02-03T19:04:06.985Z,102735.75
2023-02-03T19:06:34.368Z,102729.94
2023-02-03T19:09:00.726Z,102730.34
2023-02-03T19:11:27.087Z,102740.53
2023-02-03T19:13:53.396Z,102742.66
2023-02-03T19:16:19.822Z,102743.41
2023-02-03T19:18:47.727Z,102752.22
2023-02-03T19:21:14.525Z,102742.75
2023-02-03T19:23:41.560Z,102748.81
2023-02-03T19:26:08.315Z,102750.63
2023-02-03T19:28:35.552Z,102753.81
2023-02-03T19:31:07.608Z,102759.34
2023-02-03T19:33:35.024Z,102765.38
2023-02-03T19:36:02.968Z,102765.81
2023-02-03T19:38:29.320Z,102780.28
2023-02-03T19:40:55.628Z,102777.50
2023-02-03T19:43:21.962Z,102776.13
2023-02-03T19:45:48.277Z,102779.41
2023-02-03T19:48:14.595Z,102781.59
2023-02-03T19:50:40.894Z,102787.88
2023-02-03T19:53:08.674Z,102796.22
2023-02-03T19:55:35.000Z,102785.78
2023-02-03T19:58:01.356Z,102784.72
2023-02-03T20:00:28.370Z,102787.25
2023-02-03T20:02:54.878Z,102794.72
2023-02-03T20:05:21.202Z,102788.84
2023-02-03T20:07:47.570Z,102784.28
2023-02-03T20:10:15.417Z,102786.50
2023-02-03T20:12:42.048Z,102791.16
2023-02-03T20:15:08.421Z,102774.81
2023-02-03T20:17:34.786Z,102789.66
2023-02-03T20:20:01.183Z,102794.09
2023-02-03T20:22:27.502Z,102787.06
2023-02-03T20:24:53.803Z,102793.34
2023-02-03T20:27:21.466Z,102797.78
2023-02-03T20:29:47.788Z,102794.47
2023-02-03T20:32:14.103Z,102796.69
2023-02-03T20:34:40.422Z,102791.06
2023-02-03T20:37:06.711Z,102800.28
2023-02-03T20:39:33.107Z,102808.06
2023-02-03T20:41:59.742Z,102808.81
2023-02-03T20:44:27.432Z,102826.53
2023-02-03T20:46:53.793Z,102825.38
2023-02-03T20:49:20.127Z,102827.22
2023-02-03T20:51:46.550Z,102830.28
2023-02-03T20:54:15.368Z,102837.44
2023-02-03T20:56:41.699Z,102846.84
2023-02-03T20:59:09.649Z,102842.69
2023-02-03T21:01:37.351Z,102849.06
2023-02-03T21:04:03.698Z,102844.88
2023-02-03T21:06:31.292Z,102846.75
2023-02-03T21:09:01.600Z,102849.66
2023-02-03T21:11:29.432Z,102848.47
2023-02-03T21:13:55.799Z,102845.69
2023-02-03T21:16:22.982Z,102848.16
2023-02-03T21:18:51.677Z,102837.19
2023-02-03T21:21:19.024Z,102835.63
2023-02-03T21:23:47.530Z,102852.84
2023-02-03T21:26:18.124Z,102840.69
2023-02-03T21:28:44.729Z,102838.81
2023-02-03T21:31:18.208Z,102852.66
2023-02-03T21:33:44.662Z,102854.50
2023-02-03T21:36:15.572Z,102850.34
2023-02-03T21:38:41.915Z,102850.53
2023-02-03T21:41:11.699Z,102848.94
2023-02-03T21:43:38.016Z,102852.44
2023-02-03T21:46:04.483Z,102855.84
2023-02-03T21:48:31.812Z,102863.72
2023-02-03T21:51:00.391Z,102862.44
2023-02-03T21:53:28.987Z,102863.34
2023-02-03T21:55:55.285Z,102867.31
2023-02-03T21:58:22.793Z,102859.91
2023-02-03T22:00:49.578Z,102862.19
2023-02-03T22:03:22.809Z,102873.97
2023-02-03T22:05:49.114Z,102872.63
2023-02-03T22:08:17.383Z,102875.28
2023-02-03T22:10:45.076Z,102884.59
2023-02-03T22:13:11.401Z,102884.19
2023-02-03T22:15:37.834Z,102898.88
2023-02-03T22:18:04.409Z,102897.66
2023-02-03T22:20:31.065Z,102885.63
2023-02-03T22:22:57.552Z,102888.94
2023-02-03T22:25:23.939Z,102905.03
2023-02-03T22:27:53.018Z,102897.22
2023-02-03T22:30:19.589Z,102897.38
2023-02-03T22:32:46.263Z,102899.44
2023-02-03T22:35:12.599Z,102904.47
2023-02-03T22:37:38.984Z,102910.53
2023-02-03T22:40:05.762Z,102912.31
2023-02-03T22:42:32.050Z,102911.09
2023-02-03T22:44:59.682Z,102911.66
2023-02-03T22:47:25.963Z,102908.81
2023-02-03T22:49:52.355Z,102899.34
2023-02-03T22:52:18.653Z,102909.00
2023-02-03T22:54:44.945Z,102906.63
2023-02-03T22:57:11.255Z,102924.16
2023-02-03T22:59:37.575Z,102923.06
2023-02-03T23:02:05.258Z,102927.97
2023-02-03T23:04:31.576Z,102932.34
2023-02-03T23:06:57.898Z,102931.59
2023-02-03T23:09:24.201Z,102934.78
2023-02-03T23:11:50.529Z,102932.59
2023-02-03T23:14:16.826Z,102936.31
2023-02-03T23:16:43.356Z,102929.00
2023-02-03T23:19:11.057Z,102939.53
2023-02-03T23:21:37.426Z,102942.25
2023-02-03T23:24:04.092Z,102950.44
2023-02-03T23:26:30.382Z,102956.66
2023-02-03T23:28:56.720Z,102961.72
2023-02-03T23:31:23.154Z,102961.34
2023-02-03T23:33:49.494Z,102966.41
2023-02-03T23:36:17.184Z,102971.47
2023-02-03T23:38:43.482Z,102973.38
2023-02-03T23:41:09.817Z,102974.78
2023-02-03T23:43:36.105Z,102976.72
2023-02-03T23:46:02.487Z,102978.31
2023-02-03T23:48:28.888Z,102980.00
2023-02-03T23:50:55.204Z,102983.34
2023-02-03T23:53:22.879Z,102983.97
2023-02-03T23:55:49.166Z,102983.44
2023-02-03T23:58:15.474Z,102971.91
